createdAt,value
2024-04-25T00:00:51.760Z,100.00
2024-04-25T00:01:53.436Z,100.00
2024-04-25T00:02:55.124Z,100.00
2024-04-25T00:03:57.012Z,100.00
2024-04-25T00:04:58.598Z,100.00
2024-04-25T00:06:00.179Z,100.00
2024-04-25T00:07:01.801Z,100.00
2024-04-25T00:08:05.025Z,100.00
2024-04-25T00:09:06.734Z,100.00
2024-04-25T00:10:08.331Z,100.00
2024-04-25T00:11:10.018Z,100.00
2024-04-25T00:12:11.653Z,100.00
2024-04-25T00:13:13.446Z,100.00
2024-04-25T00:14:15.858Z,100.00
2024-04-25T00:15:17.451Z,100.00
2024-04-25T00:16:19.082Z,100.00
2024-04-25T00:17:20.864Z,100.00
2024-04-25T00:18:23.484Z,100.00
2024-04-25T00:19:25.309Z,100.00
2024-04-25T00:20:26.972Z,100.00
2024-04-25T00:21:28.545Z,100.00
2024-04-25T00:22:30.615Z,100.00
2024-04-25T00:23:32.472Z,100.00
2024-04-25T00:24:34.163Z,100.00
2024-04-25T00:25:35.762Z,100.00
2024-04-25T00:26:37.543Z,100.00
2024-04-25T00:27:39.223Z,100.00
2024-04-25T00:28:40.923Z,100.00
2024-04-25T00:29:42.551Z,100.00
2024-04-25T00:30:44.144Z,100.00
2024-04-25T00:31:45.807Z,100.00
2024-04-25T00:32:47.954Z,100.00
2024-04-25T00:33:49.753Z,100.00
2024-04-25T00:34:51.363Z,100.00
2024-04-25T00:35:53.242Z,100.00
2024-04-25T00:36:54.846Z,100.00
2024-04-25T00:37:56.405Z,100.00
2024-04-25T00:38:58.499Z,100.00
2024-04-25T00:40:00.120Z,100.00
2024-04-25T00:41:01.988Z,100.00
2024-04-25T00:42:03.655Z,100.00
2024-04-25T00:43:05.749Z,100.00
2024-04-25T00:44:07.611Z,100.00
2024-04-25T00:45:09.628Z,100.00
2024-04-25T00:46:11.179Z,100.00
2024-04-25T00:47:17.063Z,100.00
2024-04-25T00:48:19.063Z,100.00
2024-04-25T00:49:20.754Z,100.00
2024-04-25T00:50:23.893Z,100.00
2024-04-25T00:51:26.329Z,100.00
2024-04-25T00:52:28.484Z,100.00
2024-04-25T00:53:30.976Z,100.00
2024-04-25T00:54:33.277Z,100.00
2024-04-25T00:55:34.871Z,100.00
2024-04-25T00:56:40.284Z,100.00
2024-04-25T00:57:43.318Z,100.00
2024-04-25T00:58:49.948Z,100.00
2024-04-25T00:59:55.980Z,100.00
2024-04-25T01:00:58.797Z,100.00
2024-04-25T01:02:02.856Z,100.00
2024-04-25T01:03:06.517Z,100.00
2024-04-25T01:04:08.929Z,100.00
2024-04-25T01:05:10.924Z,100.00
2024-04-25T01:06:14.744Z,100.00
2024-04-25T01:07:16.807Z,100.00
2024-04-25T01:08:18.416Z,100.00
2024-04-25T01:09:20.022Z,100.00
2024-04-25T01:10:21.616Z,100.00
2024-04-25T01:11:23.393Z,100.00
2024-04-25T01:12:26.373Z,100.00
2024-04-25T01:13:27.947Z,100.00
2024-04-25T01:14:29.934Z,100.00
2024-04-25T01:15:32.068Z,100.00
2024-04-25T01:16:33.685Z,100.00
2024-04-25T01:17:35.467Z,100.00
2024-04-25T01:18:37.359Z,100.00
2024-04-25T01:19:38.948Z,100.00
2024-04-25T01:20:40.845Z,100.00
2024-04-25T01:21:42.615Z,100.00
2024-04-25T01:22:50.294Z,100.00
2024-04-25T01:23:56.194Z,100.00
2024-04-25T01:24:58.052Z,100.00
2024-04-25T01:26:00.027Z,100.00
2024-04-25T01:27:02.801Z,100.00
2024-04-25T01:28:06.564Z,100.00
2024-04-25T01:29:10.198Z,100.00
2024-04-25T01:30:12.175Z,100.00
2024-04-25T01:31:14.475Z,100.00
2024-04-25T01:32:16.743Z,100.00
2024-04-25T01:33:18.756Z,100.00
2024-04-25T01:34:20.649Z,100.00
2024-04-25T01:35:23.134Z,100.00
2024-04-25T01:36:24.915Z,100.00
2024-04-25T01:37:26.553Z,100.00
2024-04-25T01:38:28.304Z,100.00
2024-04-25T01:39:30.105Z,100.00
2024-04-25T01:40:31.760Z,100.00
2024-04-25T01:41:33.365Z,100.00
2024-04-25T01:42:34.989Z,100.00
2024-04-25T01:43:36.836Z,100.00
2024-04-25T01:44:38.397Z,100.00
2024-04-25T01:45:39.991Z,100.00
2024-04-25T01:46:43.323Z,100.00
2024-04-25T01:47:45.064Z,100.00
2024-04-25T01:48:48.116Z,100.00
2024-04-25T01:49:49.776Z,100.00
2024-04-25T01:50:51.413Z,100.00
2024-04-25T01:51:53.021Z,100.00
2024-04-25T01:52:54.571Z,100.00
2024-04-25T01:53:56.247Z,100.00
2024-04-25T01:54:57.836Z,100.00
2024-04-25T01:55:59.637Z,100.00
2024-04-25T01:57:01.201Z,100.00
2024-04-25T01:58:02.751Z,100.00
2024-04-25T01:59:04.432Z,100.00
2024-04-25T02:00:06.626Z,100.00
2024-04-25T02:01:11.574Z,100.00
2024-04-25T02:02:13.210Z,100.00
2024-04-25T02:03:14.892Z,100.00
2024-04-25T02:04:16.548Z,100.00
2024-04-25T02:05:18.167Z,100.00
2024-04-25T02:06:19.735Z,100.00
2024-04-25T02:07:21.619Z,100.00
2024-04-25T02:08:23.572Z,100.00
2024-04-25T02:09:25.155Z,100.00
2024-04-25T02:10:26.757Z,100.00
2024-04-25T02:11:28.421Z,100.00
2024-04-25T02:12:30.077Z,100.00
2024-04-25T02:13:31.626Z,100.00
2024-04-25T02:14:33.329Z,100.00
2024-04-25T02:15:34.923Z,100.00
2024-04-25T02:16:36.532Z,100.00
2024-04-25T02:17:40.979Z,100.00
2024-04-25T02:18:42.785Z,100.00
2024-04-25T02:19:44.378Z,100.00
2024-04-25T02:21:04.611Z,100.00
2024-04-25T02:22:24.995Z,100.00
2024-04-25T02:23:45.332Z,100.00
2024-04-25T02:25:05.643Z,100.00
2024-04-25T02:26:09.150Z,100.00
2024-04-25T02:27:10.732Z,100.00
2024-04-25T02:28:12.378Z,100.00
2024-04-25T02:29:14.116Z,100.00
2024-04-25T02:30:15.910Z,100.00
2024-04-25T02:31:21.074Z,100.00
2024-04-25T02:32:23.575Z,100.00
2024-04-25T02:33:26.555Z,100.00
2024-04-25T02:34:28.111Z,100.00
2024-04-25T02:35:29.705Z,100.00
2024-04-25T02:36:31.296Z,100.00
2024-04-25T02:37:32.861Z,100.00
2024-04-25T02:38:34.448Z,100.00
2024-04-25T02:39:36.091Z,100.00
2024-04-25T02:40:37.736Z,100.00
2024-04-25T02:41:39.381Z,100.00
2024-04-25T02:42:40.977Z,100.00
2024-04-25T02:43:42.548Z,100.00
2024-04-25T02:44:44.121Z,100.00
2024-04-25T02:45:45.665Z,100.00
2024-04-25T02:46:47.217Z,100.00
2024-04-25T02:47:48.987Z,100.00
2024-04-25T02:48:50.782Z,100.00
2024-04-25T02:49:52.353Z,100.00
2024-04-25T02:50:53.941Z,100.00
2024-04-25T02:51:55.509Z,100.00
2024-04-25T02:52:57.100Z,100.00
2024-04-25T02:53:59.666Z,100.00
2024-04-25T02:55:01.233Z,100.00
2024-04-25T02:56:03.728Z,100.00
2024-04-25T02:57:05.298Z,100.00
2024-04-25T02:58:06.945Z,100.00
2024-04-25T02:59:08.530Z,100.00
2024-04-25T03:00:10.874Z,100.00
2024-04-25T03:01:12.471Z,100.00
2024-04-25T03:02:14.170Z,100.00
2024-04-25T03:03:16.033Z,100.00
2024-04-25T03:04:17.720Z,100.00
2024-04-25T03:05:19.451Z,100.00
2024-04-25T03:06:22.673Z,100.00
2024-04-25T03:07:24.234Z,100.00
2024-04-25T03:08:26.055Z,100.00
2024-04-25T03:09:27.596Z,100.00
2024-04-25T03:10:29.162Z,100.00
2024-04-25T03:11:30.772Z,100.00
2024-04-25T03:12:33.240Z,100.00
2024-04-25T03:13:38.045Z,100.00
2024-04-25T03:14:41.467Z,100.00
2024-04-25T03:15:44.051Z,100.00
2024-04-25T03:16:45.671Z,100.00
2024-04-25T03:17:47.307Z,100.00
2024-04-25T03:18:49.060Z,100.00
2024-04-25T03:19:50.698Z,100.00
2024-04-25T03:20:52.527Z,100.00
2024-04-25T03:21:54.151Z,100.00
2024-04-25T03:22:55.683Z,100.00
2024-04-25T03:23:58.171Z,100.00
2024-04-25T03:24:59.738Z,100.00
2024-04-25T03:26:01.298Z,100.00
2024-04-25T03:27:02.939Z,100.00
2024-04-25T03:28:04.757Z,100.00
2024-04-25T03:29:07.097Z,100.00
2024-04-25T03:30:09.040Z,100.00
2024-04-25T03:31:10.658Z,100.00
2024-04-25T03:32:12.283Z,100.00
2024-04-25T03:33:13.957Z,100.00
2024-04-25T03:34:15.550Z,100.00
2024-04-25T03:35:17.308Z,100.00
2024-04-25T03:36:18.947Z,100.00
2024-04-25T03:37:20.479Z,100.00
2024-04-25T03:38:22.135Z,100.00
2024-04-25T03:39:23.712Z,100.00
2024-04-25T03:40:25.526Z,100.00
2024-04-25T03:41:27.481Z,100.00
2024-04-25T03:42:29.023Z,100.00
2024-04-25T03:43:30.581Z,100.00
2024-04-25T03:44:32.177Z,100.00
2024-04-25T03:45:36.334Z,100.00
2024-04-25T03:46:37.870Z,100.00
2024-04-25T03:47:39.605Z,100.00
2024-04-25T03:48:41.303Z,100.00
2024-04-25T03:49:42.965Z,100.00
2024-04-25T03:50:44.777Z,100.00
2024-04-25T03:51:46.412Z,100.00
2024-04-25T03:52:48.276Z,100.00
2024-04-25T03:53:49.906Z,100.00
2024-04-25T03:54:51.585Z,100.00
2024-04-25T03:55:53.139Z,100.00
2024-04-25T03:56:55.011Z,100.00
2024-04-25T03:57:56.613Z,100.00
2024-04-25T03:58:58.488Z,100.00
2024-04-25T04:00:00.067Z,100.00
2024-04-25T04:01:02.311Z,100.00
2024-04-25T04:02:03.976Z,100.00
2024-04-25T04:03:08.013Z,100.00
2024-04-25T04:04:09.703Z,100.00
2024-04-25T04:05:11.356Z,100.00
2024-04-25T04:06:12.961Z,100.00
2024-04-25T04:07:14.501Z,100.00
2024-04-25T04:08:16.594Z,100.00
2024-04-25T04:09:18.146Z,100.00
2024-04-25T04:10:19.746Z,100.00
2024-04-25T04:11:21.488Z,100.00
2024-04-25T04:12:23.790Z,100.00
2024-04-25T04:13:25.387Z,100.00
2024-04-25T04:14:26.975Z,100.00
2024-04-25T04:15:28.796Z,100.00
2024-04-25T04:16:30.707Z,100.00
2024-04-25T04:17:32.477Z,100.00
2024-04-25T04:18:34.219Z,100.00
2024-04-25T04:19:35.813Z,100.00
2024-04-25T04:20:37.448Z,100.00
2024-04-25T04:21:39.077Z,100.00
2024-04-25T04:22:40.664Z,100.00
2024-04-25T04:23:43.932Z,100.00
2024-04-25T04:24:45.719Z,100.00
2024-04-25T04:25:47.339Z,100.00
2024-04-25T04:26:48.944Z,100.00
2024-04-25T04:27:50.793Z,100.00
2024-04-25T04:28:52.440Z,100.00
2024-04-25T04:29:54.043Z,100.00
2024-04-25T04:30:55.573Z,100.00
2024-04-25T04:31:57.134Z,100.00
2024-04-25T04:32:58.965Z,100.00
2024-04-25T04:34:00.700Z,100.00
2024-04-25T04:35:02.349Z,100.00
2024-04-25T04:36:04.208Z,100.00
2024-04-25T04:37:05.804Z,100.00
2024-04-25T04:38:08.553Z,100.00
2024-04-25T04:39:12.194Z,100.00
2024-04-25T04:40:13.806Z,100.00
2024-04-25T04:41:15.578Z,100.00
2024-04-25T04:42:17.169Z,100.00
2024-04-25T04:43:19.060Z,100.00
2024-04-25T04:44:20.615Z,100.00
2024-04-25T04:45:22.212Z,100.00
2024-04-25T04:46:23.790Z,100.00
2024-04-25T04:47:25.449Z,100.00
2024-04-25T04:48:34.343Z,100.00
2024-04-25T04:49:37.010Z,100.00
2024-04-25T04:50:38.780Z,100.00
2024-04-25T04:51:42.141Z,100.00
2024-04-25T04:52:43.781Z,100.00
2024-04-25T04:53:46.016Z,100.00
2024-04-25T04:54:47.817Z,100.00
2024-04-25T04:55:49.692Z,100.00
2024-04-25T04:56:51.322Z,100.00
2024-04-25T04:57:52.907Z,100.00
2024-04-25T04:58:55.579Z,100.00
2024-04-25T04:59:57.168Z,100.00
2024-04-25T05:01:00.300Z,100.00
2024-04-25T05:02:02.195Z,100.00
2024-04-25T05:03:04.098Z,100.00
2024-04-25T05:04:05.742Z,100.00
2024-04-25T05:05:07.565Z,100.00
2024-04-25T05:06:10.506Z,100.00
2024-04-25T05:07:12.358Z,100.00
2024-04-25T05:08:14.020Z,100.00
2024-04-25T05:09:15.844Z,100.00
2024-04-25T05:10:17.447Z,100.00
2024-04-25T05:11:19.145Z,100.00
2024-04-25T05:12:20.817Z,100.00
2024-04-25T05:13:22.377Z,100.00
2024-04-25T05:14:23.970Z,100.00
2024-04-25T05:15:25.675Z,100.00
2024-04-25T05:16:27.630Z,100.00
2024-04-25T05:17:29.275Z,100.00
2024-04-25T05:18:30.848Z,100.00
2024-04-25T05:19:32.423Z,100.00
2024-04-25T05:20:34.731Z,100.00
2024-04-25T05:21:36.418Z,100.00
2024-04-25T05:22:41.004Z,100.00
2024-04-25T05:23:42.888Z,100.00
2024-04-25T05:24:44.963Z,100.00
2024-04-25T05:25:46.543Z,100.00
2024-04-25T05:26:48.487Z,100.00
2024-04-25T05:27:52.956Z,100.00
2024-04-25T05:28:54.863Z,100.00
2024-04-25T05:29:56.414Z,100.00
2024-04-25T05:30:58.002Z,100.00
2024-04-25T05:31:59.663Z,100.00
2024-04-25T05:33:03.776Z,100.00
2024-04-25T05:34:05.505Z,100.00
2024-04-25T05:35:07.389Z,100.00
2024-04-25T05:36:09.507Z,100.00
2024-04-25T05:37:11.315Z,100.00
2024-04-25T05:38:12.975Z,100.00
2024-04-25T05:39:14.577Z,100.00
2024-04-25T05:40:16.263Z,100.00
2024-04-25T05:41:17.904Z,100.00
2024-04-25T05:42:19.716Z,100.00
2024-04-25T05:43:21.298Z,100.00
2024-04-25T05:44:22.867Z,100.00
2024-04-25T05:45:24.728Z,100.00
2024-04-25T05:46:27.223Z,100.00
2024-04-25T05:47:29.084Z,100.00
2024-04-25T05:48:34.314Z,100.00
2024-04-25T05:49:36.161Z,100.00
2024-04-25T05:50:38.670Z,100.00
2024-04-25T05:51:40.595Z,100.00
2024-04-25T05:52:42.174Z,100.00
2024-04-25T05:53:43.903Z,100.00
2024-04-25T05:54:46.111Z,100.00
2024-04-25T05:55:47.650Z,100.00
2024-04-25T05:56:49.403Z,100.00
2024-04-25T05:57:50.987Z,100.00
2024-04-25T05:58:55.390Z,100.00
2024-04-25T05:59:57.156Z,100.00
2024-04-25T06:00:58.730Z,100.00
2024-04-25T06:02:01.151Z,100.00
2024-04-25T06:03:04.470Z,100.00
2024-04-25T06:04:06.488Z,100.00
2024-04-25T06:05:08.234Z,100.00
2024-04-25T06:06:09.890Z,100.00
2024-04-25T06:07:11.639Z,100.00
2024-04-25T06:08:13.358Z,100.00
2024-04-25T06:09:15.067Z,100.00
2024-04-25T06:10:16.710Z,100.00
2024-04-25T06:11:18.512Z,100.00
2024-04-25T06:12:20.657Z,100.00
2024-04-25T06:13:22.479Z,100.00
2024-04-25T06:14:24.648Z,100.00
2024-04-25T06:15:26.240Z,100.00
2024-04-25T06:16:27.905Z,100.00
2024-04-25T06:17:29.548Z,100.00
2024-04-25T06:18:31.175Z,100.00
2024-04-25T06:19:32.751Z,100.00
2024-04-25T06:20:34.430Z,100.00
2024-04-25T06:21:36.672Z,100.00
2024-04-25T06:22:39.331Z,100.00
2024-04-25T06:23:41.158Z,100.00
2024-04-25T06:24:43.148Z,100.00
2024-04-25T06:25:46.331Z,100.00
2024-04-25T06:26:48.151Z,100.00
2024-04-25T06:27:49.836Z,100.00
2024-04-25T06:28:51.390Z,100.00
2024-04-25T06:29:53.247Z,100.00
2024-04-25T06:30:58.471Z,100.00
2024-04-25T06:32:00.071Z,100.00
2024-04-25T06:33:02.811Z,100.00
2024-04-25T06:34:06.238Z,100.00
2024-04-25T06:35:08.059Z,100.00
2024-04-25T06:36:10.365Z,100.00
2024-04-25T06:37:14.181Z,100.00
2024-04-25T06:38:16.346Z,100.00
2024-04-25T06:39:18.057Z,100.00
2024-04-25T06:40:19.679Z,100.00
2024-04-25T06:41:21.313Z,100.00
2024-04-25T06:42:23.010Z,100.00
2024-04-25T06:43:24.615Z,100.00
2024-04-25T06:44:31.551Z,100.00
2024-04-25T06:45:38.634Z,100.00
2024-04-25T06:46:41.661Z,100.00
2024-04-25T06:47:43.678Z,100.00
2024-04-25T06:48:48.202Z,100.00
2024-04-25T06:49:50.859Z,100.00
2024-04-25T06:50:52.507Z,100.00
2024-04-25T06:51:54.088Z,100.00
2024-04-25T06:52:55.653Z,100.00
2024-04-25T06:53:57.291Z,100.00
2024-04-25T06:54:58.847Z,100.00
2024-04-25T06:56:00.722Z,100.00
2024-04-25T06:57:02.339Z,100.00
2024-04-25T06:58:05.212Z,100.00
2024-04-25T06:59:06.769Z,100.00
2024-04-25T07:00:08.576Z,100.00
2024-04-25T07:01:10.246Z,100.00
2024-04-25T07:02:13.138Z,100.00
2024-04-25T07:03:15.308Z,100.00
2024-04-25T07:04:17.647Z,100.00
2024-04-25T07:05:19.325Z,100.00
2024-04-25T07:06:20.914Z,100.00
2024-04-25T07:07:22.512Z,100.00
2024-04-25T07:08:24.367Z,100.00
2024-04-25T07:09:25.997Z,100.00
2024-04-25T07:10:27.595Z,100.00
2024-04-25T07:11:30.092Z,100.00
2024-04-25T07:12:33.616Z,100.00
2024-04-25T07:13:35.831Z,100.00
2024-04-25T07:14:37.456Z,100.00
2024-04-25T07:15:39.037Z,100.00
2024-04-25T07:16:40.624Z,100.00
2024-04-25T07:17:42.406Z,100.00
2024-04-25T07:18:44.167Z,100.00
2024-04-25T07:19:46.067Z,100.00
2024-04-25T07:20:47.796Z,100.00
2024-04-25T07:21:49.448Z,100.00
2024-04-25T07:22:50.985Z,100.00
2024-04-25T07:23:52.551Z,100.00
2024-04-25T07:24:54.165Z,100.00
2024-04-25T07:25:56.325Z,100.00
2024-04-25T07:26:58.322Z,100.00
2024-04-25T07:27:59.897Z,100.00
2024-04-25T07:29:01.452Z,100.00
2024-04-25T07:30:03.080Z,100.00
2024-04-25T07:31:05.771Z,100.00
2024-04-25T07:32:07.364Z,100.00
2024-04-25T07:33:09.134Z,100.00
2024-04-25T07:34:10.771Z,100.00
2024-04-25T07:35:13.094Z,100.00
2024-04-25T07:36:21.211Z,100.00
2024-04-25T07:37:25.332Z,100.00
2024-04-25T07:38:27.112Z,100.00
2024-04-25T07:39:28.849Z,100.00
2024-04-25T07:40:30.441Z,100.00
2024-04-25T07:41:33.199Z,100.00
2024-04-25T07:42:35.289Z,100.00
2024-04-25T07:43:36.869Z,100.00
2024-04-25T07:44:38.788Z,100.00
2024-04-25T07:45:42.696Z,100.00
2024-04-25T07:46:44.939Z,100.00
2024-04-25T07:47:46.846Z,100.00
2024-04-25T07:48:51.498Z,100.00
2024-04-25T07:49:53.920Z,100.00
2024-04-25T07:50:55.596Z,100.00
2024-04-25T07:51:57.168Z,100.00
2024-04-25T07:52:58.875Z,100.00
2024-04-25T07:54:00.428Z,100.00
2024-04-25T07:55:02.346Z,100.00
2024-04-25T07:56:04.158Z,100.00
2024-04-25T07:57:05.833Z,100.00
2024-04-25T07:58:07.357Z,100.00
2024-04-25T07:59:09.044Z,100.00
2024-04-25T08:00:11.307Z,100.00
2024-04-25T08:01:15.705Z,100.00
2024-04-25T08:02:17.425Z,100.00
2024-04-25T08:03:20.110Z,100.00
2024-04-25T08:04:21.928Z,100.00
2024-04-25T08:05:23.778Z,100.00
2024-04-25T08:06:25.947Z,100.00
2024-04-25T08:07:27.520Z,100.00
2024-04-25T08:08:29.123Z,100.00
2024-04-25T08:09:31.611Z,100.00
2024-04-25T08:10:33.846Z,100.00
2024-04-25T08:11:35.508Z,100.00
2024-04-25T08:12:38.830Z,100.00
2024-04-25T08:13:40.417Z,100.00
2024-04-25T08:14:45.341Z,100.00
2024-04-25T08:15:47.425Z,100.00
2024-04-25T08:16:50.753Z,100.00
2024-04-25T08:17:53.395Z,100.00
2024-04-25T08:18:55.720Z,100.00
2024-04-25T08:19:57.396Z,100.00
2024-04-25T08:21:00.597Z,100.00
2024-04-25T08:22:02.272Z,100.00
2024-04-25T08:23:03.955Z,100.00
2024-04-25T08:24:05.835Z,100.00
2024-04-25T08:25:07.786Z,100.00
2024-04-25T08:26:10.484Z,100.00
2024-04-25T08:27:13.272Z,100.00
2024-04-25T08:28:14.804Z,100.00
2024-04-25T08:29:17.147Z,100.00
2024-04-25T08:30:18.981Z,100.00
2024-04-25T08:31:20.559Z,100.00
2024-04-25T08:32:25.306Z,100.00
2024-04-25T08:33:27.999Z,100.00
2024-04-25T08:34:29.807Z,100.00
2024-04-25T08:35:31.535Z,100.00
2024-04-25T08:36:33.130Z,100.00
2024-04-25T08:37:37.403Z,100.00
2024-04-25T08:38:40.994Z,100.00
2024-04-25T08:39:42.868Z,100.00
2024-04-25T08:40:48.905Z,100.00
2024-04-25T08:41:51.726Z,100.00
2024-04-25T08:42:53.899Z,100.00
2024-04-25T08:43:55.648Z,100.00
2024-04-25T08:44:57.625Z,100.00
2024-04-25T08:46:00.950Z,100.00
2024-04-25T08:47:03.892Z,100.00
2024-04-25T08:48:07.230Z,100.00
2024-04-25T08:49:09.193Z,100.00
2024-04-25T08:50:11.838Z,100.00
2024-04-25T08:51:17.487Z,100.00
2024-04-25T08:52:20.852Z,100.00
2024-04-25T08:53:26.532Z,100.00
2024-04-25T08:54:29.000Z,100.00
2024-04-25T08:55:31.485Z,100.00
2024-04-25T08:56:33.253Z,100.00
2024-04-25T08:57:35.236Z,100.00
2024-04-25T08:58:36.895Z,100.00
2024-04-25T08:59:38.493Z,100.00
2024-04-25T09:00:41.839Z,100.00
2024-04-25T09:01:49.248Z,100.00
2024-04-25T09:02:52.532Z,100.00
2024-04-25T09:03:55.893Z,100.00
2024-04-25T09:04:58.203Z,100.00
2024-04-25T09:05:59.764Z,100.00
2024-04-25T09:07:09.541Z,100.00
2024-04-25T09:08:12.446Z,100.00
2024-04-25T09:09:14.018Z,100.00
2024-04-25T09:10:15.596Z,100.00
2024-04-25T09:11:24.267Z,100.00
2024-04-25T09:12:33.749Z,100.00
2024-04-25T09:13:35.616Z,100.00
2024-04-25T09:14:38.116Z,100.00
2024-04-25T09:15:39.771Z,100.00
2024-04-25T09:16:41.360Z,100.00
2024-04-25T09:17:43.195Z,100.00
2024-04-25T09:18:44.805Z,100.00
2024-04-25T09:19:46.390Z,100.00
2024-04-25T09:20:48.271Z,100.00
2024-04-25T09:21:50.052Z,100.00
2024-04-25T09:22:52.390Z,100.00
2024-04-25T09:23:53.992Z,100.00
2024-04-25T09:24:55.607Z,100.00
2024-04-25T09:25:57.518Z,100.00
2024-04-25T09:26:59.386Z,100.00
2024-04-25T09:28:03.705Z,100.00
2024-04-25T09:29:05.384Z,100.00
2024-04-25T09:30:08.634Z,100.00
2024-04-25T09:31:10.357Z,100.00
2024-04-25T09:32:20.767Z,100.00
2024-04-25T09:33:22.628Z,100.00
2024-04-25T09:34:24.418Z,100.00
2024-04-25T09:35:26.025Z,100.00
2024-04-25T09:36:29.497Z,100.00
2024-04-25T09:37:31.566Z,100.00
2024-04-25T09:38:33.199Z,100.00
2024-04-25T09:39:35.109Z,100.00
2024-04-25T09:40:36.793Z,100.00
2024-04-25T09:41:38.811Z,100.00
2024-04-25T09:42:41.250Z,100.00
2024-04-25T09:43:43.234Z,99.95
2024-04-25T09:44:45.045Z,100.00
2024-04-25T09:45:46.877Z,100.00
2024-04-25T09:46:55.587Z,100.00
2024-04-25T09:48:06.587Z,100.00
2024-04-25T09:49:10.339Z,100.00
2024-04-25T09:50:25.251Z,100.00
2024-04-25T09:51:33.480Z,100.00
2024-04-25T09:52:42.640Z,100.00
2024-04-25T09:53:53.248Z,96.25
2024-04-25T09:55:03.132Z,100.00
2024-04-25T09:56:06.119Z,100.00
2024-04-25T09:57:11.204Z,98.53
2024-04-25T09:58:17.054Z,93.33
2024-04-25T09:59:50.231Z,91.83
2024-04-25T10:00:52.429Z,91.21
2024-04-25T10:01:56.006Z,88.22
2024-04-25T10:02:59.104Z,82.83
2024-04-25T10:04:01.364Z,87.35
2024-04-25T10:05:03.287Z,84.98
2024-04-25T10:06:05.759Z,90.35
2024-04-25T10:07:08.804Z,90.69
2024-04-25T10:08:11.055Z,86.31
2024-04-25T10:09:13.189Z,86.81
2024-04-25T10:10:15.273Z,84.14
2024-04-25T10:11:17.455Z,84.57
2024-04-25T10:12:23.800Z,85.14
2024-04-25T10:13:26.320Z,88.96
2024-04-25T10:14:31.081Z,83.69
2024-04-25T10:15:34.279Z,84.63
2024-04-25T10:16:37.292Z,85.35
2024-04-25T10:17:39.540Z,82.90
2024-04-25T10:18:51.203Z,81.17
2024-04-25T10:19:53.413Z,77.19
2024-04-25T10:21:02.418Z,80.47
2024-04-25T10:22:04.017Z,79.98
2024-04-25T10:23:08.330Z,75.68
2024-04-25T10:24:10.245Z,75.33
2024-04-25T10:25:19.981Z,77.02
2024-04-25T10:26:22.742Z,75.70
2024-04-25T10:27:28.025Z,75.15
2024-04-25T10:28:30.444Z,73.75
2024-04-25T10:29:32.608Z,73.88
2024-04-25T10:30:34.527Z,72.26
2024-04-25T10:31:37.409Z,70.81
2024-04-25T10:32:39.273Z,70.42
2024-04-25T10:33:41.088Z,70.87
2024-04-25T10:34:42.961Z,73.76
2024-04-25T10:35:45.239Z,76.50
2024-04-25T10:36:47.859Z,76.03
2024-04-25T10:37:51.284Z,76.85
2024-04-25T10:38:59.028Z,73.47
2024-04-25T10:40:03.733Z,76.25
2024-04-25T10:41:05.413Z,75.95
2024-04-25T10:42:16.183Z,76.32
2024-04-25T10:43:19.076Z,79.27
2024-04-25T10:44:20.859Z,77.44
2024-04-25T10:45:26.141Z,74.31
2024-04-25T10:46:27.861Z,78.48
2024-04-25T10:47:30.319Z,78.00
2024-04-25T10:48:32.383Z,79.45
2024-04-25T10:49:35.175Z,77.58
2024-04-25T10:50:38.562Z,79.43
2024-04-25T10:51:43.585Z,73.85
2024-04-25T10:52:45.305Z,77.54
2024-04-25T10:53:47.563Z,74.23
2024-04-25T10:54:49.398Z,74.77
2024-04-25T10:55:51.512Z,76.19
2024-04-25T10:56:53.788Z,73.58
2024-04-25T10:57:56.098Z,75.27
2024-04-25T10:58:58.988Z,77.26
2024-04-25T11:00:01.600Z,74.73
2024-04-25T11:01:03.354Z,76.89
2024-04-25T11:02:06.814Z,74.75
2024-04-25T11:03:12.130Z,71.51
2024-04-25T11:04:13.770Z,69.70
2024-04-25T11:05:15.600Z,72.70
2024-04-25T11:06:17.216Z,76.73
2024-04-25T11:07:18.955Z,74.36
2024-04-25T11:08:20.586Z,66.89
2024-04-25T11:09:24.185Z,71.12
2024-04-25T11:10:28.276Z,74.94
2024-04-25T11:11:30.264Z,78.64
2024-04-25T11:12:33.009Z,81.47
2024-04-25T11:13:34.632Z,82.51
2024-04-25T11:14:36.281Z,84.99
2024-04-25T11:15:38.851Z,83.15
2024-04-25T11:16:41.586Z,87.30
2024-04-25T11:17:56.031Z,89.77
2024-04-25T11:19:13.569Z,95.07
2024-04-25T11:20:18.983Z,95.93
2024-04-25T11:21:21.237Z,96.22
2024-04-25T11:22:30.771Z,100.00
2024-04-25T11:23:44.628Z,100.00
2024-04-25T11:24:46.299Z,100.00
2024-04-25T11:25:51.285Z,100.00
2024-04-25T11:26:59.649Z,100.00
2024-04-25T11:28:01.726Z,100.00
2024-04-25T11:29:03.393Z,99.22
2024-04-25T11:30:06.531Z,100.00
2024-04-25T11:31:09.323Z,100.00
2024-04-25T11:32:10.982Z,100.00
2024-04-25T11:33:12.769Z,95.35
2024-04-25T11:34:22.877Z,86.99
2024-04-25T11:35:28.715Z,84.04
2024-04-25T11:36:31.794Z,77.55
2024-04-25T11:37:41.306Z,76.83
2024-04-25T11:38:43.102Z,73.32
2024-04-25T11:39:52.375Z,69.78
2024-04-25T11:40:54.090Z,69.67
2024-04-25T11:41:55.948Z,70.13
2024-04-25T11:42:57.757Z,69.27
2024-04-25T11:43:59.409Z,64.36
2024-04-25T11:45:01.273Z,67.46
2024-04-25T11:46:02.857Z,66.89
2024-04-25T11:47:04.767Z,69.05
2024-04-25T11:48:11.958Z,69.82
2024-04-25T11:49:13.815Z,70.25
2024-04-25T11:50:15.440Z,71.10
2024-04-25T11:51:17.103Z,75.74
2024-04-25T11:52:18.850Z,71.83
2024-04-25T11:53:20.613Z,73.26
2024-04-25T11:54:22.601Z,76.57
2024-04-25T11:55:24.368Z,73.64
2024-04-25T11:56:30.265Z,73.73
2024-04-25T11:57:32.627Z,75.08
2024-04-25T11:58:34.294Z,72.82
2024-04-25T11:59:35.920Z,76.42
2024-04-25T12:00:39.132Z,77.64
2024-04-25T12:01:40.677Z,81.35
2024-04-25T12:02:42.276Z,78.67
2024-04-25T12:03:44.130Z,77.39
2024-04-25T12:04:45.777Z,79.55
2024-04-25T12:05:47.531Z,74.68
2024-04-25T12:06:49.215Z,75.63
2024-04-25T12:07:52.034Z,68.56
2024-04-25T12:08:53.812Z,66.50
2024-04-25T12:09:55.403Z,66.97
2024-04-25T12:10:57.253Z,72.11
2024-04-25T12:11:59.146Z,69.76
2024-04-25T12:13:02.452Z,69.79
2024-04-25T12:14:04.578Z,70.55
2024-04-25T12:15:07.192Z,70.58
2024-04-25T12:16:08.802Z,65.46
2024-04-25T12:17:10.348Z,66.55
2024-04-25T12:18:12.139Z,68.76
2024-04-25T12:19:13.796Z,66.20
2024-04-25T12:20:17.438Z,65.70
2024-04-25T12:21:19.043Z,65.73
2024-04-25T12:22:21.088Z,64.31
2024-04-25T12:23:24.982Z,67.47
2024-04-25T12:24:27.880Z,66.02
2024-04-25T12:25:32.043Z,62.82
2024-04-25T12:26:33.745Z,66.39
2024-04-25T12:27:35.359Z,65.35
2024-04-25T12:28:37.207Z,64.94
2024-04-25T12:29:38.846Z,70.83
2024-04-25T12:30:40.813Z,66.60
2024-04-25T12:31:43.709Z,69.31
2024-04-25T12:32:45.375Z,68.83
2024-04-25T12:33:47.155Z,67.62
2024-04-25T12:34:49.087Z,66.15
2024-04-25T12:35:50.888Z,70.87
2024-04-25T12:36:52.593Z,68.20
2024-04-25T12:37:54.417Z,72.67
2024-04-25T12:38:56.129Z,70.17
2024-04-25T12:40:00.250Z,68.68
2024-04-25T12:41:01.879Z,68.40
2024-04-25T12:42:03.583Z,69.74
2024-04-25T12:43:06.037Z,73.01
2024-04-25T12:44:08.318Z,67.86
2024-04-25T12:45:13.655Z,68.40
2024-04-25T12:46:15.669Z,65.28
2024-04-25T12:47:17.365Z,65.68
2024-04-25T12:48:19.338Z,64.37
2024-04-25T12:49:34.843Z,64.60
2024-04-25T12:50:38.199Z,64.01
2024-04-25T12:51:40.095Z,65.28
2024-04-25T12:52:41.681Z,66.53
2024-04-25T12:53:43.384Z,67.47
2024-04-25T12:54:44.968Z,67.55
2024-04-25T12:55:47.625Z,67.40
2024-04-25T12:56:49.293Z,73.32
2024-04-25T12:57:55.958Z,73.04
2024-04-25T12:58:57.562Z,72.42
2024-04-25T12:59:59.203Z,72.05
2024-04-25T13:01:01.209Z,73.10
2024-04-25T13:02:02.834Z,71.51
2024-04-25T13:03:04.607Z,70.41
2024-04-25T13:04:06.361Z,70.36
2024-04-25T13:05:07.988Z,75.08
2024-04-25T13:06:09.600Z,73.59
2024-04-25T13:07:11.372Z,75.04